createdAt,value
2022-12-15T00:01:17.536Z,11.00
2022-12-15T00:06:38.952Z,12.05
2022-12-15T00:12:00.175Z,11.02
2022-12-15T00:17:21.662Z,10.45
2022-12-15T00:22:42.895Z,11.38
2022-12-15T00:28:04.187Z,12.48
2022-12-15T00:33:31.276Z,10.57
2022-12-15T00:38:44.490Z,11.60
2022-12-15T00:43:47.484Z,11.35
2022-12-15T00:48:50.647Z,11.32
2022-12-15T00:54:17.862Z,11.40
2022-12-15T00:59:39.454Z,11.88
2022-12-15T01:05:01.629Z,10.40
2022-12-15T01:10:25.422Z,11.60
2022-12-15T01:15:46.584Z,11.93
2022-12-15T01:20:57.937Z,12.75
2022-12-15T01:26:01.114Z,13.93
2022-12-15T01:31:12.105Z,11.85
2022-12-15T01:36:15.286Z,12.75
2022-12-15T01:41:18.820Z,11.02
2022-12-15T01:46:23.742Z,14.38
2022-12-15T01:51:33.972Z,12.60
2022-12-15T01:56:45.592Z,12.77
2022-12-15T02:01:49.704Z,12.80
2022-12-15T02:06:53.590Z,12.13
2022-12-15T02:12:40.195Z,12.70
2022-12-15T02:18:00.445Z,12.05
2022-12-15T02:23:15.468Z,12.82
2022-12-15T02:28:37.169Z,12.38
2022-12-15T02:33:52.316Z,11.77
2022-12-15T02:38:55.289Z,11.55
2022-12-15T02:43:58.348Z,12.50
2022-12-15T02:49:28.808Z,10.98
2022-12-15T02:54:51.932Z,11.52
2022-12-15T03:00:13.378Z,12.00
2022-12-15T03:05:18.160Z,13.35
2022-12-15T03:10:24.742Z,12.43
2022-12-15T03:15:31.799Z,11.82
2022-12-15T03:20:38.192Z,11.30
2022-12-15T03:25:41.248Z,11.98
2022-12-15T03:30:45.387Z,11.75
2022-12-15T03:35:53.658Z,15.93
2022-12-15T03:40:56.619Z,17.20
2022-12-15T03:45:59.725Z,15.02
2022-12-15T03:51:02.963Z,12.80
2022-12-15T03:56:06.180Z,11.85
2022-12-15T04:01:13.257Z,13.52
2022-12-15T04:06:16.355Z,11.43
2022-12-15T04:11:19.718Z,10.70
2022-12-15T04:16:22.745Z,11.93
2022-12-15T04:21:25.781Z,12.25
2022-12-15T04:26:47.280Z,15.00
2022-12-15T04:32:11.191Z,14.73
2022-12-15T04:37:32.863Z,15.65
2022-12-15T04:42:56.660Z,15.75
2022-12-15T04:48:19.045Z,16.45
2022-12-15T04:53:40.962Z,17.33
2022-12-15T04:59:02.395Z,15.88
2022-12-15T05:04:23.761Z,18.10
2022-12-15T05:09:45.065Z,15.88
2022-12-15T05:15:06.706Z,16.35
2022-12-15T05:20:28.357Z,16.17
2022-12-15T05:25:49.696Z,18.17
2022-12-15T05:31:11.282Z,18.98
2022-12-15T05:36:14.364Z,19.05
2022-12-15T05:41:21.881Z,16.25
2022-12-15T05:46:25.044Z,17.55
2022-12-15T05:51:28.577Z,16.42
2022-12-15T05:56:31.841Z,15.73
2022-12-15T06:01:35.741Z,16.60
2022-12-15T06:06:41.293Z,18.02
2022-12-15T06:11:46.701Z,17.83
2022-12-15T06:16:51.158Z,20.65
2022-12-15T06:21:54.557Z,29.80
2022-12-15T06:26:57.644Z,45.13
2022-12-15T06:32:00.578Z,36.53
2022-12-15T06:37:03.524Z,31.98
2022-12-15T06:42:06.647Z,23.52
2022-12-15T06:47:09.692Z,19.33
2022-12-15T06:52:12.720Z,18.08
2022-12-15T06:57:15.691Z,17.20
2022-12-15T07:02:22.455Z,19.38
2022-12-15T07:07:29.885Z,15.25
2022-12-15T07:12:32.842Z,14.90
2022-12-15T07:17:37.275Z,16.00
2022-12-15T07:22:40.410Z,16.10
2022-12-15T07:27:43.427Z,16.23
2022-12-15T07:32:50.015Z,14.63
2022-12-15T07:42:56.070Z,14.20
2022-12-15T07:47:59.096Z,13.27
2022-12-15T07:53:02.076Z,14.75
2022-12-15T07:58:05.035Z,11.30
2022-12-15T08:03:08.125Z,11.77
2022-12-15T08:08:15.305Z,13.27
2022-12-15T08:13:44.940Z,15.88
2022-12-15T08:18:41.635Z,24.73
2022-12-15T08:23:44.714Z,29.65
2022-12-15T08:28:47.672Z,23.30
2022-12-15T08:33:51.515Z,46.13
2022-12-15T08:38:58.277Z,28.67
2022-12-15T08:44:02.548Z,16.42
2022-12-15T08:49:05.714Z,14.60
2022-12-15T08:54:09.281Z,19.08
2022-12-15T08:59:12.355Z,14.63
2022-12-15T09:04:17.028Z,18.95
2022-12-15T09:09:20.523Z,17.55
2022-12-15T09:14:29.174Z,15.38
2022-12-15T09:19:32.776Z,19.00
2022-12-15T09:24:35.811Z,20.27
2022-12-15T09:29:38.743Z,24.73
2022-12-15T09:34:44.328Z,24.15
2022-12-15T09:39:47.274Z,16.75
2022-12-15T09:44:57.005Z,26.80
2022-12-15T09:50:05.247Z,21.98
2022-12-15T09:55:30.287Z,19.13
2022-12-15T10:01:02.186Z,12.18
2022-12-15T10:06:21.159Z,12.45
2022-12-15T10:11:44.512Z,9.10
2022-12-15T10:17:15.069Z,11.85
2022-12-15T10:22:27.659Z,11.95
2022-12-15T10:27:39.278Z,12.02
2022-12-15T10:32:51.272Z,15.85
2022-12-15T10:38:03.959Z,20.23
2022-12-15T10:43:25.779Z,56.63
2022-12-15T10:48:29.013Z,21.85
2022-12-15T10:53:42.618Z,31.48
2022-12-15T10:58:57.502Z,17.65
2022-12-15T11:04:00.687Z,28.85
2022-12-15T11:09:33.469Z,27.90
2022-12-15T11:15:02.944Z,20.42
2022-12-15T11:20:17.581Z,19.27
2022-12-15T11:25:29.601Z,16.63
2022-12-15T11:30:42.813Z,15.55
2022-12-15T11:36:13.815Z,21.65
2022-12-15T11:41:58.153Z,13.52
2022-12-15T11:47:43.713Z,14.95
2022-12-15T11:53:09.168Z,18.58
2022-12-15T11:58:35.424Z,12.15
2022-12-15T12:03:48.475Z,11.90
2022-12-15T12:08:51.460Z,10.90
2022-12-15T12:14:16.104Z,12.30
2022-12-15T12:19:31.207Z,15.25
2022-12-15T12:24:42.119Z,15.57
2022-12-15T12:29:50.150Z,14.43
2022-12-15T12:35:31.139Z,10.60
2022-12-15T12:40:40.993Z,11.55
2022-12-15T12:46:00.781Z,12.43
2022-12-15T12:51:36.886Z,9.52
2022-12-15T12:56:45.455Z,8.93
2022-12-15T13:01:51.805Z,9.00
2022-12-15T13:07:25.603Z,10.93
2022-12-15T13:12:51.449Z,9.32
2022-12-15T13:18:06.754Z,16.77
2022-12-15T13:23:21.979Z,38.33
2022-12-15T13:28:36.643Z,19.48
2022-12-15T13:33:56.423Z,17.45
2022-12-15T13:38:59.365Z,21.17
2022-12-15T13:44:13.671Z,26.77
2022-12-15T13:49:33.585Z,33.50
2022-12-15T13:54:41.589Z,20.73
2022-12-15T13:59:50.953Z,14.73
2022-12-15T14:05:12.316Z,16.08
2022-12-15T14:10:25.221Z,14.73
2022-12-15T14:15:32.568Z,12.45
2022-12-15T14:20:40.913Z,13.38
2022-12-15T14:26:06.252Z,10.25
2022-12-15T14:31:18.389Z,15.63
2022-12-15T14:36:22.304Z,15.90
2022-12-15T14:41:35.844Z,16.23
2022-12-15T14:46:38.865Z,23.17
2022-12-15T14:51:48.975Z,22.95
2022-12-15T14:57:00.527Z,21.48
2022-12-15T15:02:20.386Z,33.38
2022-12-15T15:07:24.535Z,33.60
2022-12-15T15:12:44.924Z,36.30
2022-12-15T15:17:59.004Z,30.00
2022-12-15T15:23:08.009Z,23.33
2022-12-15T15:28:19.966Z,24.55
2022-12-15T15:33:24.235Z,38.35
2022-12-15T15:38:41.323Z,32.42
2022-12-15T15:43:44.662Z,34.13
2022-12-15T15:49:01.076Z,39.83
2022-12-15T15:54:11.765Z,42.40
2022-12-15T15:59:17.440Z,32.90
2022-12-15T16:04:20.533Z,40.60
2022-12-15T16:09:25.055Z,36.67
2022-12-15T16:14:28.036Z,33.72
2022-12-15T16:19:36.404Z,32.33
2022-12-15T16:24:43.823Z,27.83
2022-12-15T16:29:46.772Z,23.98
2022-12-15T16:34:50.102Z,23.55
2022-12-15T16:39:53.316Z,25.08
2022-12-15T16:44:56.295Z,24.60
2022-12-15T16:49:59.314Z,27.17
2022-12-15T16:55:02.364Z,33.85
2022-12-15T17:00:15.771Z,31.10
2022-12-15T17:05:19.671Z,33.63
2022-12-15T17:10:26.532Z,29.77
2022-12-15T17:15:29.584Z,30.05
2022-12-15T17:20:32.872Z,26.25
2022-12-15T17:26:19.586Z,35.40
2022-12-15T17:31:34.858Z,35.92
2022-12-15T17:36:38.775Z,37.67
2022-12-15T17:41:59.322Z,40.00
2022-12-15T17:47:04.309Z,29.35
2022-12-15T17:52:28.666Z,32.13
2022-12-15T17:57:32.289Z,19.80
2022-12-15T18:02:35.440Z,21.58
2022-12-15T18:07:38.621Z,22.67
2022-12-15T18:12:41.586Z,17.85
2022-12-15T18:17:44.503Z,19.73
2022-12-15T18:22:49.233Z,21.08
2022-12-15T18:27:56.994Z,20.45
2022-12-15T18:32:59.993Z,18.50
2022-12-15T18:38:12.055Z,32.90
2022-12-15T18:43:18.345Z,33.53
2022-12-15T18:48:30.501Z,31.35
2022-12-15T18:53:36.075Z,39.00
2022-12-15T18:58:40.565Z,26.33
2022-12-15T19:03:43.643Z,27.02
2022-12-15T19:08:46.876Z,22.70
2022-12-15T19:13:50.144Z,21.05
2022-12-15T19:19:17.083Z,21.63
2022-12-15T19:24:45.779Z,21.65
2022-12-15T19:29:50.077Z,17.38
2022-12-15T19:34:53.043Z,18.23
2022-12-15T19:39:58.013Z,22.77
2022-12-15T19:45:01.924Z,23.00
2022-12-15T19:50:06.290Z,28.77
2022-12-15T19:55:15.021Z,24.77
2022-12-15T20:00:22.189Z,25.98
2022-12-15T20:05:26.238Z,21.98
2022-12-15T20:10:32.385Z,24.45
2022-12-15T20:15:35.567Z,23.55
2022-12-15T20:20:42.133Z,26.48
2022-12-15T20:25:45.560Z,27.23
2022-12-15T20:30:49.729Z,30.55
2022-12-15T20:35:52.857Z,31.95
2022-12-15T20:40:56.853Z,28.63
2022-12-15T20:46:11.292Z,27.55
2022-12-15T20:51:30.559Z,24.00
2022-12-15T20:56:33.514Z,24.65
2022-12-15T21:01:39.260Z,29.30
2022-12-15T21:06:44.283Z,23.10
2022-12-15T21:11:48.525Z,23.15
2022-12-15T21:16:51.544Z,19.80
2022-12-15T21:21:55.231Z,20.85
2022-12-15T21:26:58.956Z,16.88
2022-12-15T21:32:02.022Z,17.20
2022-12-15T21:37:05.811Z,22.88
2022-12-15T21:42:14.681Z,21.42
2022-12-15T21:47:47.816Z,22.25
2022-12-15T21:52:50.838Z,27.67
2022-12-15T21:57:55.443Z,28.42
2022-12-15T22:02:58.494Z,25.55
2022-12-15T22:08:19.526Z,21.92
2022-12-15T22:13:23.901Z,25.85
2022-12-15T22:18:26.774Z,25.95
2022-12-15T22:23:29.732Z,28.10
2022-12-15T22:28:34.073Z,30.25
2022-12-15T22:33:37.308Z,28.20
2022-12-15T22:38:40.504Z,23.38
2022-12-15T22:43:45.542Z,27.83
2022-12-15T22:48:49.018Z,24.23
2022-12-15T22:53:51.939Z,25.70
2022-12-15T22:59:02.854Z,22.98
2022-12-15T23:04:06.488Z,25.83
2022-12-15T23:09:09.955Z,32.65
2022-12-15T23:14:17.455Z,31.95
2022-12-15T23:19:26.091Z,33.55
2022-12-15T23:24:29.294Z,36.22
2022-12-15T23:29:32.517Z,34.33
2022-12-15T23:34:35.571Z,37.25
2022-12-15T23:39:38.528Z,33.42
2022-12-15T23:44:41.812Z,29.10
2022-12-15T23:49:44.780Z,30.48
2022-12-15T23:54:47.627Z,26.45
2022-12-15T23:59:50.605Z,28.85
